createdAt,value
2022-09-15T00:00:29.120Z,1.37
2022-09-15T00:02:55.932Z,1.30
2022-09-15T00:05:22.497Z,1.57
2022-09-15T00:07:48.950Z,1.40
2022-09-15T00:10:15.491Z,2.07
2022-09-15T00:12:42.025Z,1.83
2022-09-15T00:15:08.877Z,1.27
2022-09-15T00:17:35.316Z,1.40
2022-09-15T00:20:02.042Z,1.30
2022-09-15T00:22:28.424Z,1.30
2022-09-15T00:24:54.837Z,1.20
2022-09-15T00:27:21.206Z,1.60
2022-09-15T00:29:47.571Z,1.30
2022-09-15T00:32:13.965Z,1.30
2022-09-15T00:34:40.375Z,1.20
2022-09-15T00:37:07.129Z,1.30
2022-09-15T00:39:33.500Z,1.73
2022-09-15T00:41:59.877Z,1.27
2022-09-15T00:44:35.447Z,1.27
2022-09-15T00:47:18.828Z,1.20
2022-09-15T00:49:48.415Z,1.43
2022-09-15T00:52:40.790Z,1.27
2022-09-15T00:55:29.005Z,1.47
2022-09-15T00:58:07.034Z,1.43
2022-09-15T01:00:34.834Z,1.63
2022-09-15T01:03:02.267Z,1.60
2022-09-15T01:05:45.591Z,1.40
2022-09-15T01:08:22.104Z,1.83
2022-09-15T01:10:49.180Z,1.70
2022-09-15T01:13:15.585Z,1.20
2022-09-15T01:16:13.593Z,1.60
2022-09-15T01:19:04.983Z,1.67
2022-09-15T01:21:45.127Z,1.20
2022-09-15T01:24:33.481Z,1.80
2022-09-15T01:27:41.439Z,1.80
2022-09-15T01:30:15.300Z,1.70
2022-09-15T01:33:06.607Z,1.30
2022-09-15T01:36:05.431Z,1.30
2022-09-15T01:38:42.061Z,1.70
2022-09-15T01:41:11.504Z,1.70
2022-09-15T01:43:44.303Z,1.47
2022-09-15T01:46:12.054Z,1.40
2022-09-15T01:48:39.453Z,1.40
2022-09-15T01:51:07.003Z,1.40
2022-09-15T01:53:34.250Z,1.40
2022-09-15T01:56:09.939Z,1.43
2022-09-15T01:58:38.572Z,1.73
2022-09-15T02:01:11.368Z,1.93
2022-09-15T02:03:51.613Z,1.60
2022-09-15T02:06:49.581Z,1.50
2022-09-15T02:09:28.108Z,1.40
2022-09-15T02:12:03.376Z,1.23
2022-09-15T02:14:48.049Z,1.50
2022-09-15T02:17:18.920Z,1.30
2022-09-15T02:19:50.435Z,1.57
2022-09-15T02:22:30.630Z,1.33
2022-09-15T02:25:04.899Z,1.20
2022-09-15T02:27:37.797Z,1.30
2022-09-15T02:30:11.612Z,1.30
2022-09-15T02:32:46.598Z,1.30
2022-09-15T02:35:15.830Z,1.37
2022-09-15T02:37:43.199Z,1.30
2022-09-15T02:40:10.462Z,1.33
2022-09-15T02:42:37.044Z,1.33
2022-09-15T02:45:04.400Z,1.17
2022-09-15T02:47:31.977Z,1.20
2022-09-15T02:49:58.542Z,1.13
2022-09-15T02:52:26.084Z,1.20
2022-09-15T02:54:52.472Z,1.27
2022-09-15T02:57:18.825Z,1.10
2022-09-15T03:00:03.817Z,1.10
2022-09-15T03:02:31.274Z,0.80
2022-09-15T03:04:57.722Z,1.00
2022-09-15T03:07:24.818Z,1.20
2022-09-15T03:09:51.169Z,0.93
2022-09-15T03:12:17.674Z,1.10
2022-09-15T03:14:44.412Z,0.87
2022-09-15T03:17:10.761Z,1.20
2022-09-15T03:19:37.268Z,1.53
2022-09-15T03:22:03.653Z,0.83
2022-09-15T03:24:30.077Z,0.77
2022-09-15T03:26:56.462Z,1.00
2022-09-15T03:29:23.003Z,0.77
2022-09-15T03:31:49.774Z,1.00
2022-09-15T03:34:16.318Z,1.00
2022-09-15T03:36:43.076Z,0.90
2022-09-15T03:39:11.824Z,0.60
2022-09-15T03:41:38.411Z,1.20
2022-09-15T03:44:04.782Z,0.70
2022-09-15T03:46:31.194Z,1.13
2022-09-15T03:48:57.565Z,0.73
2022-09-15T03:51:24.092Z,0.77
2022-09-15T03:53:50.518Z,0.90
2022-09-15T03:56:19.759Z,0.80
2022-09-15T03:58:46.092Z,0.73
2022-09-15T04:01:12.652Z,0.70
2022-09-15T04:03:45.284Z,0.77
2022-09-15T04:06:15.048Z,0.80
2022-09-15T04:08:41.855Z,0.60
2022-09-15T04:11:10.543Z,0.70
2022-09-15T04:13:38.629Z,0.80
2022-09-15T04:16:08.096Z,1.00
2022-09-15T04:18:35.678Z,0.80
2022-09-15T04:21:06.919Z,0.70
2022-09-15T04:23:33.819Z,1.20
2022-09-15T04:26:05.948Z,0.83
2022-09-15T04:28:34.402Z,0.80
2022-09-15T04:31:12.741Z,0.80
2022-09-15T04:33:40.689Z,0.77
2022-09-15T04:36:13.103Z,0.90
2022-09-15T04:38:39.554Z,0.80
2022-09-15T04:41:07.007Z,0.70
2022-09-15T04:43:33.792Z,0.90
2022-09-15T04:46:00.615Z,0.90
2022-09-15T04:48:27.819Z,0.80
2022-09-15T04:50:54.685Z,0.73
2022-09-15T04:53:21.400Z,0.83
2022-09-15T04:55:48.064Z,0.90
2022-09-15T04:58:14.404Z,1.00
2022-09-15T05:00:45.929Z,0.90
2022-09-15T05:03:13.979Z,0.70
2022-09-15T05:05:41.170Z,0.80
2022-09-15T05:08:08.084Z,0.90
2022-09-15T05:10:34.504Z,0.70
2022-09-15T05:13:00.865Z,0.90
2022-09-15T05:15:27.225Z,0.90
2022-09-15T05:17:53.631Z,0.60
2022-09-15T05:20:20.190Z,0.93
2022-09-15T05:22:46.620Z,1.05
2022-09-15T05:25:13.110Z,0.77
2022-09-15T05:27:39.724Z,0.90
2022-09-15T05:30:35.197Z,0.90
2022-09-15T05:32:53.829Z,0.97
2022-09-15T05:35:20.223Z,0.73
2022-09-15T05:37:46.604Z,1.10
2022-09-15T05:40:12.992Z,0.90
2022-09-15T05:42:40.459Z,0.60
2022-09-15T05:45:07.597Z,0.70
2022-09-15T05:47:34.099Z,1.13
2022-09-15T05:50:00.457Z,0.77
2022-09-15T05:52:26.848Z,0.80
2022-09-15T05:54:58.320Z,1.00
2022-09-15T05:57:25.526Z,0.80
2022-09-15T05:59:51.990Z,0.67
2022-09-15T06:02:18.400Z,0.80
2022-09-15T06:04:44.783Z,0.80
2022-09-15T06:07:11.200Z,0.77
2022-09-15T06:09:37.847Z,0.83
2022-09-15T06:12:04.294Z,0.93
2022-09-15T06:14:30.738Z,0.70
2022-09-15T06:16:57.182Z,1.10
2022-09-15T06:19:23.951Z,0.90
2022-09-15T06:21:52.421Z,0.73
2022-09-15T06:24:18.841Z,0.77
2022-09-15T06:26:45.570Z,0.90
2022-09-15T06:29:12.861Z,0.67
2022-09-15T06:31:39.585Z,0.97
2022-09-15T06:34:06.959Z,1.20
2022-09-15T06:36:34.007Z,0.80
2022-09-15T06:39:00.538Z,1.13
2022-09-15T06:41:38.155Z,1.23
2022-09-15T06:44:09.737Z,1.90
2022-09-15T06:46:36.396Z,0.93
2022-09-15T06:49:02.894Z,1.00
2022-09-15T06:51:36.867Z,0.90
2022-09-15T06:54:04.520Z,1.03
2022-09-15T06:56:34.583Z,0.83
2022-09-15T06:59:06.625Z,1.17
2022-09-15T07:01:33.652Z,0.70
2022-09-15T07:04:02.870Z,1.13
2022-09-15T07:06:31.438Z,0.60
2022-09-15T07:09:01.107Z,0.90
2022-09-15T07:11:27.987Z,0.63
2022-09-15T07:13:54.765Z,0.80
2022-09-15T07:16:23.333Z,0.70
2022-09-15T07:18:52.437Z,1.00
2022-09-15T07:21:20.329Z,0.90
2022-09-15T07:23:47.552Z,0.63
2022-09-15T07:26:23.991Z,0.80
2022-09-15T07:28:54.144Z,0.70
2022-09-15T07:31:25.076Z,0.70
2022-09-15T07:33:51.948Z,1.07
2022-09-15T07:36:19.395Z,0.53
2022-09-15T07:38:49.959Z,0.90
2022-09-15T07:41:21.663Z,0.70
2022-09-15T07:43:50.113Z,0.80
2022-09-15T07:46:18.382Z,1.00
2022-09-15T07:48:49.698Z,0.70
2022-09-15T07:51:17.594Z,1.00
2022-09-15T07:53:46.032Z,1.00
2022-09-15T07:56:13.356Z,0.80
2022-09-15T07:58:39.846Z,0.93
2022-09-15T08:01:11.529Z,1.07
2022-09-15T08:03:48.574Z,1.20
2022-09-15T08:06:17.224Z,0.90
2022-09-15T08:08:47.271Z,1.47
2022-09-15T08:11:19.744Z,0.83
2022-09-15T08:13:47.823Z,1.03
2022-09-15T08:16:16.959Z,0.70
2022-09-15T08:18:44.677Z,0.73
2022-09-15T08:21:15.818Z,0.77
2022-09-15T08:23:43.101Z,0.63
2022-09-15T08:26:14.326Z,0.50
2022-09-15T08:28:42.614Z,0.90
2022-09-15T08:31:11.676Z,0.87
2022-09-15T08:33:44.611Z,0.67
2022-09-15T08:36:12.782Z,0.70
2022-09-15T08:38:41.117Z,0.93
2022-09-15T08:41:13.821Z,0.50
2022-09-15T08:44:03.721Z,0.60
2022-09-15T08:46:38.553Z,0.70
2022-09-15T08:49:23.475Z,0.90
2022-09-15T08:52:03.398Z,0.90
2022-09-15T08:54:31.565Z,0.80
2022-09-15T08:56:58.805Z,0.80
2022-09-15T08:59:34.571Z,0.90
2022-09-15T09:02:15.006Z,0.80
2022-09-15T09:05:12.517Z,0.57
2022-09-15T09:08:14.708Z,1.00
2022-09-15T09:11:01.278Z,0.90
2022-09-15T09:13:41.328Z,1.10
2022-09-15T09:16:23.006Z,0.70
2022-09-15T09:19:16.352Z,0.80
2022-09-15T09:22:01.619Z,0.70
2022-09-15T09:24:39.932Z,0.60
2022-09-15T09:27:21.602Z,0.67
2022-09-15T09:29:55.457Z,0.80
2022-09-15T09:32:33.948Z,0.50
2022-09-15T09:35:35.123Z,0.40
2022-09-15T09:38:02.835Z,0.40
2022-09-15T09:40:34.908Z,0.40
2022-09-15T09:43:01.745Z,0.40
2022-09-15T09:45:30.222Z,0.80
2022-09-15T09:48:02.801Z,0.70
2022-09-15T09:50:35.013Z,0.50
2022-09-15T09:53:23.679Z,0.40
2022-09-15T09:55:50.219Z,0.30
2022-09-15T09:58:29.409Z,0.40
2022-09-15T10:01:14.384Z,0.40
2022-09-15T10:03:47.278Z,0.30
2022-09-15T10:06:17.030Z,0.60
2022-09-15T10:09:00.208Z,0.40
2022-09-15T10:11:44.602Z,0.50
2022-09-15T10:14:34.809Z,0.70
2022-09-15T10:17:11.765Z,0.50
2022-09-15T10:20:17.323Z,0.50
2022-09-15T10:22:47.200Z,0.50
2022-09-15T10:25:20.280Z,0.50
2022-09-15T10:28:21.772Z,0.53
2022-09-15T10:31:15.797Z,0.53
2022-09-15T10:33:53.246Z,0.50
2022-09-15T10:36:30.436Z,0.60
2022-09-15T10:39:18.699Z,0.60
2022-09-15T10:42:09.528Z,0.80
2022-09-15T10:44:52.266Z,1.03
2022-09-15T10:47:40.120Z,1.10
2022-09-15T10:50:25.993Z,1.40
2022-09-15T10:53:29.290Z,0.87
2022-09-15T10:56:35.283Z,0.87
2022-09-15T10:59:21.138Z,1.27
2022-09-15T11:02:23.009Z,0.80
2022-09-15T11:05:27.486Z,1.00
2022-09-15T11:08:19.117Z,1.00
2022-09-15T11:11:09.982Z,1.20
2022-09-15T11:13:59.643Z,1.57
2022-09-15T11:16:40.554Z,1.10
2022-09-15T11:19:41.078Z,1.20
2022-09-15T11:22:24.594Z,1.00
2022-09-15T11:24:56.516Z,1.17
2022-09-15T11:28:14.335Z,1.13
2022-09-15T11:31:13.958Z,1.30
2022-09-15T11:33:50.704Z,1.83
2022-09-15T11:36:32.844Z,1.60
2022-09-15T11:39:09.533Z,1.20
2022-09-15T11:41:45.204Z,1.17
2022-09-15T11:44:22.902Z,1.50
2022-09-15T11:47:27.852Z,1.17
2022-09-15T11:50:06.315Z,2.03
2022-09-15T11:53:16.720Z,1.70
2022-09-15T11:55:51.268Z,1.10
2022-09-15T11:58:24.838Z,1.27
2022-09-15T12:00:57.457Z,1.30
2022-09-15T12:03:37.348Z,1.47
2022-09-15T12:06:09.601Z,1.10
2022-09-15T12:08:38.031Z,1.10
2022-09-15T12:11:10.512Z,1.03
2022-09-15T12:13:37.580Z,1.20
2022-09-15T12:16:05.107Z,1.40
2022-09-15T12:18:41.741Z,1.57
2022-09-15T12:21:13.412Z,1.60
2022-09-15T12:23:59.045Z,1.00
2022-09-15T12:26:27.104Z,1.60
2022-09-15T12:28:56.160Z,1.23
2022-09-15T12:31:38.441Z,1.23
2022-09-15T12:34:36.947Z,1.87
2022-09-15T12:37:25.683Z,2.23
2022-09-15T12:39:54.376Z,1.80
2022-09-15T12:42:31.248Z,2.23
2022-09-15T12:45:02.982Z,1.20
2022-09-15T12:47:40.387Z,2.37
2022-09-15T12:50:16.093Z,2.57
2022-09-15T12:52:47.138Z,1.57
2022-09-15T12:55:23.984Z,1.97
2022-09-15T12:57:53.868Z,2.00
2022-09-15T13:00:20.301Z,2.63
2022-09-15T13:02:49.231Z,1.63
2022-09-15T13:05:46.672Z,2.10
2022-09-15T13:08:34.569Z,2.57
2022-09-15T13:11:25.665Z,2.00
2022-09-15T13:14:15.140Z,2.20
2022-09-15T13:16:44.006Z,2.43
2022-09-15T13:19:20.415Z,1.73
2022-09-15T13:22:13.338Z,1.73
2022-09-15T13:25:10.878Z,1.50
2022-09-15T13:27:54.190Z,1.13
2022-09-15T13:30:20.702Z,2.20
2022-09-15T13:33:04.895Z,1.37
2022-09-15T13:35:40.985Z,2.00
2022-09-15T13:38:46.960Z,2.00
2022-09-15T13:41:30.942Z,2.20
2022-09-15T13:44:26.138Z,1.20
2022-09-15T13:47:20.369Z,1.27
2022-09-15T13:50:06.191Z,1.30
2022-09-15T13:52:58.572Z,1.30
2022-09-15T13:55:28.214Z,1.57
2022-09-15T14:01:06.860Z,1.30
2022-09-15T14:03:48.283Z,1.77
2022-09-15T14:06:19.619Z,1.77
2022-09-15T14:08:51.215Z,1.80
2022-09-15T14:11:25.602Z,1.60
2022-09-15T14:13:53.684Z,1.83
2022-09-15T14:16:24.854Z,1.80
2022-09-15T14:18:54.184Z,1.70
2022-09-15T14:21:26.373Z,1.87
2022-09-15T14:23:56.351Z,2.33
2022-09-15T14:26:26.602Z,1.27
2022-09-15T14:29:03.004Z,1.70
2022-09-15T14:31:38.621Z,2.10
2022-09-15T14:34:16.203Z,2.53
2022-09-15T14:36:43.396Z,1.40
2022-09-15T14:39:20.864Z,1.93
2022-09-15T14:41:48.676Z,1.50
2022-09-15T14:47:28.282Z,1.70
2022-09-15T14:50:09.461Z,1.50
2022-09-15T14:52:40.937Z,1.77
2022-09-15T14:55:23.462Z,1.77
2022-09-15T14:58:15.997Z,1.60
2022-09-15T15:01:01.714Z,2.10
2022-09-15T15:03:59.940Z,1.80
2022-09-15T15:06:34.983Z,1.40
2022-09-15T15:09:21.536Z,1.40
2022-09-15T15:11:56.699Z,1.83
2022-09-15T15:16:52.930Z,1.87
2022-09-15T15:19:37.907Z,1.60
2022-09-15T15:22:13.602Z,1.10
2022-09-15T15:24:46.499Z,1.50
2022-09-15T15:27:35.321Z,1.63
2022-09-15T15:30:31.163Z,1.53
2022-09-15T15:33:25.580Z,1.40
2022-09-15T15:36:08.820Z,2.07
2022-09-15T15:38:42.631Z,1.70
2022-09-15T15:41:22.391Z,2.20
2022-09-15T15:44:26.601Z,2.10
2022-09-15T15:46:57.230Z,2.40
2022-09-15T15:49:29.961Z,2.20
2022-09-15T15:51:58.563Z,1.77
2022-09-15T15:54:26.800Z,1.60
2022-09-15T15:56:53.659Z,1.57
2022-09-15T15:59:20.735Z,2.00
2022-09-15T16:01:53.712Z,1.90
2022-09-15T16:04:22.050Z,1.80
2022-09-15T16:06:48.618Z,2.00
2022-09-15T16:09:17.539Z,1.90
2022-09-15T16:11:44.151Z,2.00
2022-09-15T16:14:13.735Z,1.77
2022-09-15T16:16:41.108Z,1.40
2022-09-15T16:19:09.081Z,1.80
2022-09-15T16:21:39.834Z,1.93
2022-09-15T16:24:11.162Z,1.87
2022-09-15T16:26:39.365Z,1.93
2022-09-15T16:29:06.836Z,2.00
2022-09-15T16:31:35.279Z,2.03
2022-09-15T16:34:03.632Z,2.07
2022-09-15T16:36:34.002Z,2.20
2022-09-15T16:39:01.021Z,1.67
2022-09-15T16:41:30.261Z,1.87
2022-09-15T16:43:56.888Z,1.80
2022-09-15T16:46:23.711Z,2.10
2022-09-15T16:48:50.606Z,2.10
2022-09-15T16:51:34.746Z,2.43
2022-09-15T16:54:01.315Z,2.10
2022-09-15T16:56:27.818Z,2.00
2022-09-15T16:59:00.161Z,2.20
2022-09-15T17:01:28.313Z,1.93
2022-09-15T17:03:56.022Z,2.30
2022-09-15T17:06:23.380Z,1.90
2022-09-15T17:08:50.146Z,1.70
2022-09-15T17:11:19.709Z,2.10
2022-09-15T17:13:46.874Z,1.70
2022-09-15T17:16:15.846Z,2.00
2022-09-15T17:18:42.406Z,2.27
2022-09-15T17:21:13.551Z,2.60
2022-09-15T17:23:43.925Z,2.20
2022-09-15T17:26:30.520Z,1.80
2022-09-15T17:28:59.520Z,2.60
2022-09-15T17:31:32.350Z,3.07
2022-09-15T17:33:59.747Z,2.00
2022-09-15T17:36:27.740Z,2.80
2022-09-15T17:38:54.219Z,2.57
2022-09-15T17:41:22.537Z,2.07
2022-09-15T17:43:49.512Z,2.63
2022-09-15T17:46:16.837Z,2.30
2022-09-15T17:48:43.447Z,2.00
2022-09-15T17:51:15.162Z,2.40
2022-09-15T17:53:42.784Z,2.07
2022-09-15T17:56:09.564Z,2.70
2022-09-15T17:58:35.998Z,2.17
2022-09-15T18:01:03.868Z,2.30
2022-09-15T18:03:34.753Z,2.63
2022-09-15T18:06:05.253Z,2.40
2022-09-15T18:08:36.006Z,1.83
2022-09-15T18:11:04.158Z,2.60
2022-09-15T18:13:31.294Z,2.80
2022-09-15T18:16:04.237Z,2.90
2022-09-15T18:18:30.764Z,2.40
2022-09-15T18:20:59.323Z,2.10
2022-09-15T18:23:28.401Z,2.50
2022-09-15T18:25:55.228Z,2.40
2022-09-15T18:28:21.671Z,2.53
2022-09-15T18:30:49.774Z,2.60
2022-09-15T18:33:24.121Z,3.00
2022-09-15T18:35:53.201Z,2.73
2022-09-15T18:38:22.532Z,3.30
2022-09-15T18:40:53.278Z,3.33
2022-09-15T18:43:20.773Z,3.43
2022-09-15T18:45:48.179Z,3.63
2022-09-15T18:48:14.646Z,4.00
2022-09-15T18:50:43.422Z,3.10
2022-09-15T18:53:10.124Z,3.60
2022-09-15T18:55:36.595Z,3.50
2022-09-15T18:58:03.014Z,3.30
2022-09-15T19:00:29.907Z,3.20
2022-09-15T19:02:58.151Z,3.57
2022-09-15T19:05:25.176Z,2.80
2022-09-15T19:07:51.548Z,2.87
2022-09-15T19:10:21.332Z,2.60
2022-09-15T19:12:47.674Z,2.80
2022-09-15T19:15:14.895Z,2.27
2022-09-15T19:17:42.443Z,2.40
2022-09-15T19:20:11.120Z,2.73
2022-09-15T19:22:37.949Z,2.30
2022-09-15T19:25:06.621Z,2.70
2022-09-15T19:27:33.529Z,3.20
2022-09-15T19:30:00.713Z,2.67
2022-09-15T19:32:27.100Z,2.60
2022-09-15T19:34:53.603Z,2.73
2022-09-15T19:37:21.320Z,2.23
2022-09-15T19:39:48.521Z,2.97
2022-09-15T19:44:47.823Z,2.97
2022-09-15T19:47:14.238Z,3.00
2022-09-15T19:49:40.646Z,2.90
2022-09-15T19:52:07.252Z,2.93
2022-09-15T19:54:34.556Z,3.03
2022-09-15T19:57:01.817Z,2.80
2022-09-15T19:59:31.726Z,2.90
2022-09-15T20:02:00.789Z,2.80
2022-09-15T20:04:28.315Z,2.50
2022-09-15T20:06:54.950Z,2.63
2022-09-15T20:09:21.323Z,2.67
2022-09-15T20:11:47.733Z,2.67
2022-09-15T20:14:16.417Z,2.20
2022-09-15T20:16:43.096Z,2.67
2022-09-15T20:19:09.556Z,2.50
2022-09-15T20:21:49.675Z,2.80
2022-09-15T20:24:17.709Z,2.33
2022-09-15T20:26:44.348Z,3.20
2022-09-15T20:29:11.444Z,2.30
2022-09-15T20:31:37.994Z,2.37
2022-09-15T20:34:04.369Z,2.50
2022-09-15T20:36:33.386Z,2.20
2022-09-15T20:39:01.447Z,2.20
2022-09-15T20:41:28.815Z,2.67
2022-09-15T20:43:55.307Z,2.43
2022-09-15T20:46:23.529Z,2.20
2022-09-15T20:48:51.445Z,2.60
2022-09-15T20:51:23.186Z,2.60
2022-09-15T20:53:52.312Z,2.33
2022-09-15T20:56:23.143Z,2.37
2022-09-15T20:58:49.525Z,2.53
2022-09-15T21:01:20.398Z,2.20
2022-09-15T21:03:47.723Z,2.33
2022-09-15T21:06:17.425Z,2.10
2022-09-15T21:08:44.713Z,2.80
2022-09-15T21:11:11.546Z,2.17
2022-09-15T21:13:40.620Z,2.27
2022-09-15T21:16:09.757Z,2.50
2022-09-15T21:18:39.415Z,2.57
2022-09-15T21:21:12.088Z,2.50
2022-09-15T21:23:42.651Z,2.33
2022-09-15T21:26:19.614Z,2.67
2022-09-15T21:28:46.199Z,2.30
2022-09-15T21:31:15.992Z,2.40
2022-09-15T21:33:44.026Z,2.50
2022-09-15T21:36:18.509Z,2.37
2022-09-15T21:38:45.097Z,2.20
2022-09-15T21:41:14.882Z,2.27
2022-09-15T21:43:43.076Z,2.10
2022-09-15T21:46:12.883Z,2.40
2022-09-15T21:48:40.096Z,2.60
2022-09-15T21:51:08.027Z,3.10
2022-09-15T21:53:37.708Z,2.57
2022-09-15T21:56:05.976Z,2.53
2022-09-15T21:58:38.942Z,2.63
2022-09-15T22:01:14.225Z,2.40
2022-09-15T22:03:42.206Z,2.33
2022-09-15T22:06:12.822Z,2.47
2022-09-15T22:08:39.932Z,2.40
2022-09-15T22:11:07.495Z,2.30
2022-09-15T22:13:36.390Z,2.53
2022-09-15T22:16:08.677Z,2.90
2022-09-15T22:18:39.887Z,2.20
2022-09-15T22:21:07.547Z,2.33
2022-09-15T22:23:34.378Z,2.53
2022-09-15T22:26:06.216Z,2.43
2022-09-15T22:28:32.864Z,2.63
2022-09-15T22:31:04.650Z,2.60
2022-09-15T22:33:31.476Z,2.60
2022-09-15T22:35:58.481Z,2.43
2022-09-15T22:38:27.307Z,2.50
2022-09-15T22:40:54.402Z,2.00
2022-09-15T22:43:21.289Z,2.13
2022-09-15T22:45:47.996Z,2.40
2022-09-15T22:48:14.412Z,2.60
2022-09-15T22:50:44.573Z,2.37
2022-09-15T22:53:12.737Z,2.70
2022-09-15T22:55:39.643Z,2.50
2022-09-15T22:58:06.780Z,2.97
2022-09-15T23:00:33.403Z,2.40
2022-09-15T23:03:00.701Z,2.30
2022-09-15T23:05:27.164Z,2.40
2022-09-15T23:07:53.544Z,2.40
2022-09-15T23:10:20.005Z,2.40
2022-09-15T23:12:46.438Z,2.17
2022-09-15T23:15:12.859Z,2.13
2022-09-15T23:17:39.477Z,2.20
2022-09-15T23:20:06.282Z,2.27
2022-09-15T23:22:32.678Z,2.50
2022-09-15T23:24:59.127Z,2.37
2022-09-15T23:27:25.580Z,2.80
2022-09-15T23:29:51.912Z,2.33
2022-09-15T23:32:18.271Z,2.30
2022-09-15T23:34:44.604Z,2.50
2022-09-15T23:37:12.025Z,2.57
2022-09-15T23:39:38.404Z,2.40
2022-09-15T23:42:04.826Z,2.37
2022-09-15T23:44:31.197Z,2.50
2022-09-15T23:46:57.625Z,2.20
2022-09-15T23:49:24.091Z,2.53
2022-09-15T23:51:50.445Z,1.90
2022-09-15T23:54:16.838Z,2.33
2022-09-15T23:56:43.330Z,2.77
2022-09-15T23:59:09.898Z,2.80
